createdAt,value
2022-11-12T00:01:10.518Z,7.70
2022-11-12T00:03:38.252Z,7.80
2022-11-12T00:06:05.904Z,7.80
2022-11-12T00:08:33.454Z,7.80
2022-11-12T00:11:01.089Z,7.70
2022-11-12T00:13:28.649Z,7.80
2022-11-12T00:15:56.232Z,7.80
2022-11-12T00:18:24.126Z,7.80
2022-11-12T00:20:51.987Z,7.80
2022-11-12T00:23:21.503Z,7.70
2022-11-12T00:25:58.511Z,7.70
2022-11-12T00:28:26.301Z,7.70
2022-11-12T00:30:54.166Z,7.70
2022-11-12T00:33:25.663Z,7.70
2022-11-12T00:35:53.447Z,7.60
2022-11-12T00:38:24.072Z,7.60
2022-11-12T00:40:51.906Z,7.60
2022-11-12T00:43:19.505Z,7.60
2022-11-12T00:45:50.470Z,7.60
2022-11-12T00:48:18.293Z,7.50
2022-11-12T00:50:45.882Z,7.50
2022-11-12T00:53:13.486Z,7.50
2022-11-12T00:55:43.785Z,7.40
2022-11-12T00:58:11.348Z,7.50
2022-11-12T01:00:39.098Z,7.50
2022-11-12T01:03:06.658Z,7.50
2022-11-12T01:05:34.685Z,7.50
2022-11-12T01:08:02.218Z,7.50
2022-11-12T01:10:32.402Z,7.50
2022-11-12T01:12:59.955Z,7.40
2022-11-12T01:15:27.540Z,7.50
2022-11-12T01:17:55.090Z,7.50
2022-11-12T01:20:22.735Z,7.50
2022-11-12T01:22:50.294Z,7.50
2022-11-12T01:25:17.874Z,7.50
2022-11-12T01:27:45.455Z,7.40
2022-11-12T01:30:13.218Z,7.50
2022-11-12T01:32:40.800Z,7.40
2022-11-12T01:35:08.425Z,7.30
2022-11-12T01:37:35.972Z,7.40
2022-11-12T01:40:03.840Z,7.40
2022-11-12T01:42:32.874Z,7.40
2022-11-12T01:45:00.449Z,7.40
2022-11-12T01:47:32.931Z,7.40
2022-11-12T01:50:14.387Z,7.40
2022-11-12T01:53:01.215Z,7.30
2022-11-12T01:55:34.566Z,7.30
2022-11-12T01:58:12.128Z,7.30
2022-11-12T02:00:44.005Z,7.40
2022-11-12T02:03:18.665Z,7.30
2022-11-12T02:05:55.028Z,7.40
2022-11-12T02:08:25.161Z,7.30
2022-11-12T02:10:53.046Z,7.30
2022-11-12T02:13:42.005Z,7.40
2022-11-12T02:16:10.592Z,7.30
2022-11-12T02:18:38.170Z,7.30
2022-11-12T02:21:09.059Z,7.30
2022-11-12T02:23:37.529Z,7.20
2022-11-12T02:26:05.177Z,7.30
2022-11-12T02:28:33.325Z,7.30
2022-11-12T02:31:00.960Z,7.30
2022-11-12T02:33:28.520Z,7.30
2022-11-12T02:35:56.126Z,7.20
2022-11-12T02:38:23.918Z,7.20
2022-11-12T02:40:52.397Z,7.30
2022-11-12T02:43:20.077Z,7.30
2022-11-12T02:45:47.756Z,7.30
2022-11-12T02:48:19.434Z,7.30
2022-11-12T02:50:48.164Z,7.30
2022-11-12T02:53:15.724Z,7.30
2022-11-12T02:55:43.945Z,7.20
2022-11-12T02:58:11.505Z,7.20
2022-11-12T03:00:39.176Z,7.20
2022-11-12T03:03:06.909Z,7.20
2022-11-12T03:05:35.511Z,7.20
2022-11-12T03:08:07.786Z,7.20
2022-11-12T03:10:38.622Z,7.20
2022-11-12T03:13:08.972Z,7.20
2022-11-12T03:15:36.742Z,7.20
2022-11-12T03:18:07.480Z,7.20
2022-11-12T03:20:37.903Z,7.10
2022-11-12T03:23:08.076Z,7.10
2022-11-12T03:25:36.298Z,7.00
2022-11-12T03:28:12.682Z,7.00
2022-11-12T03:30:42.106Z,7.00
2022-11-12T03:33:13.942Z,6.90
2022-11-12T03:35:41.929Z,6.90
2022-11-12T03:38:09.613Z,7.00
2022-11-12T03:40:37.449Z,7.00
2022-11-12T03:43:05.104Z,7.00
2022-11-12T03:45:35.015Z,7.00
2022-11-12T03:48:02.633Z,7.00
2022-11-12T03:50:30.863Z,7.00
2022-11-12T03:52:59.688Z,7.00
2022-11-12T03:55:30.687Z,7.00
2022-11-12T03:58:00.160Z,7.00
2022-11-12T04:00:29.923Z,7.00
2022-11-12T04:02:58.225Z,7.00
2022-11-12T04:05:45.742Z,6.90
2022-11-12T04:08:36.092Z,7.00
2022-11-12T04:11:16.980Z,6.90
2022-11-12T04:13:47.894Z,6.90
2022-11-12T04:16:39.295Z,6.90
2022-11-12T04:19:27.630Z,6.90
2022-11-12T04:22:04.029Z,6.90
2022-11-12T04:24:54.713Z,6.90
2022-11-12T04:27:28.739Z,6.90
2022-11-12T04:30:15.076Z,6.90
2022-11-12T04:32:50.416Z,6.80
2022-11-12T04:35:19.115Z,6.80
2022-11-12T04:37:47.600Z,6.80
2022-11-12T04:40:42.301Z,6.80
2022-11-12T04:43:31.218Z,6.80
2022-11-12T04:45:59.788Z,6.80
2022-11-12T04:48:30.901Z,6.90
2022-11-12T04:51:03.991Z,6.80
2022-11-12T04:53:31.599Z,6.70
2022-11-12T04:55:59.912Z,6.70
2022-11-12T04:58:27.733Z,6.70
2022-11-12T05:00:55.590Z,6.70
2022-11-12T05:03:23.705Z,6.70
2022-11-12T05:05:51.343Z,6.60
2022-11-12T05:08:18.902Z,6.60
2022-11-12T05:10:46.442Z,6.70
2022-11-12T05:13:13.986Z,6.60
2022-11-12T05:15:44.231Z,6.60
2022-11-12T05:18:12.249Z,6.70
2022-11-12T05:20:39.802Z,6.70
2022-11-12T05:23:07.836Z,6.70
2022-11-12T05:25:36.212Z,6.70
2022-11-12T05:28:05.710Z,6.70
2022-11-12T05:30:35.365Z,6.70
2022-11-12T05:33:03.019Z,6.60
2022-11-12T05:35:41.298Z,6.60
2022-11-12T05:38:08.878Z,6.60
2022-11-12T05:40:36.449Z,6.70
2022-11-12T05:43:04.024Z,6.70
2022-11-12T05:45:31.567Z,6.70
2022-11-12T05:47:59.133Z,6.60
2022-11-12T05:50:35.014Z,6.70
2022-11-12T05:53:07.728Z,6.70
2022-11-12T05:55:37.193Z,6.70
2022-11-12T05:58:06.380Z,6.70
2022-11-12T06:00:38.986Z,6.70
2022-11-12T06:03:11.077Z,6.70
2022-11-12T06:05:38.884Z,6.70
2022-11-12T06:08:06.848Z,6.70
2022-11-12T06:10:34.678Z,6.60
2022-11-12T06:13:02.247Z,6.70
2022-11-12T06:15:30.568Z,6.60
2022-11-12T06:17:59.509Z,6.60
2022-11-12T06:20:27.756Z,6.70
2022-11-12T06:22:57.865Z,6.70
2022-11-12T06:25:25.538Z,6.60
2022-11-12T06:27:53.192Z,6.60
2022-11-12T06:30:25.519Z,6.60
2022-11-12T06:32:53.562Z,6.70
2022-11-12T06:35:21.151Z,6.60
2022-11-12T06:37:49.745Z,6.60
2022-11-12T06:40:17.411Z,6.60
2022-11-12T06:42:44.998Z,6.60
2022-11-12T06:45:12.533Z,6.60
2022-11-12T06:47:40.090Z,6.60
2022-11-12T06:50:07.921Z,6.70
2022-11-12T06:52:35.470Z,6.70
2022-11-12T06:55:03.191Z,6.80
2022-11-12T06:57:31.318Z,6.80
2022-11-12T06:59:58.855Z,6.80
2022-11-12T07:02:28.235Z,6.80
2022-11-12T07:04:55.801Z,6.80
2022-11-12T07:07:26.174Z,6.80
2022-11-12T07:09:53.783Z,6.70
2022-11-12T07:12:21.326Z,6.70
2022-11-12T07:14:48.857Z,6.80
2022-11-12T07:17:16.404Z,6.80
2022-11-12T07:20:04.155Z,6.70
2022-11-12T07:22:34.355Z,6.70
2022-11-12T07:25:03.444Z,6.80
2022-11-12T07:27:31.334Z,6.80
2022-11-12T07:29:58.921Z,7.00
2022-11-12T07:32:30.071Z,6.90
2022-11-12T07:34:57.590Z,6.90
2022-11-12T07:37:28.385Z,6.90
2022-11-12T07:39:55.987Z,6.90
2022-11-12T07:42:23.633Z,6.90
2022-11-12T07:44:51.211Z,6.90
2022-11-12T07:47:18.773Z,6.90
2022-11-12T07:49:46.410Z,6.90
2022-11-12T07:52:13.934Z,6.90
2022-11-12T07:54:41.490Z,7.00
2022-11-12T07:57:09.044Z,7.00
2022-11-12T07:59:37.921Z,7.00
2022-11-12T08:02:09.796Z,7.00
2022-11-12T08:04:37.403Z,7.10
2022-11-12T08:07:05.132Z,7.10
2022-11-12T08:09:33.042Z,7.10
2022-11-12T08:12:00.628Z,7.10
2022-11-12T08:14:28.361Z,7.20
2022-11-12T08:16:55.929Z,7.20
2022-11-12T08:19:23.508Z,7.20
2022-11-12T08:21:51.085Z,7.20
2022-11-12T08:24:20.240Z,7.20
2022-11-12T08:26:47.817Z,7.20
2022-11-12T08:29:15.462Z,7.30
2022-11-12T08:31:43.063Z,7.30
2022-11-12T08:34:16.187Z,7.30
2022-11-12T08:36:47.586Z,7.30
2022-11-12T08:39:15.254Z,7.40
2022-11-12T08:41:42.846Z,7.30
2022-11-12T08:44:10.582Z,7.40
2022-11-12T08:46:38.209Z,7.40
2022-11-12T08:49:05.856Z,7.40
2022-11-12T08:51:36.436Z,7.40
2022-11-12T08:54:04.156Z,7.40
2022-11-12T08:56:32.011Z,7.40
2022-11-12T08:59:03.738Z,7.40
2022-11-12T09:01:33.986Z,7.30
2022-11-12T09:04:01.688Z,7.50
2022-11-12T09:06:29.256Z,7.60
2022-11-12T09:08:56.891Z,7.50
2022-11-12T09:27:07.677Z,7.60
2022-11-12T09:29:35.527Z,7.60
2022-11-12T09:32:03.304Z,7.70
2022-11-12T09:34:30.990Z,7.70
2022-11-12T09:36:58.619Z,7.70
2022-11-12T09:39:26.277Z,7.80
2022-11-12T09:41:57.858Z,7.70
2022-11-12T09:44:36.504Z,7.80
2022-11-12T09:47:17.620Z,7.70
2022-11-12T09:49:51.883Z,7.70
2022-11-12T09:52:19.470Z,7.80
2022-11-12T09:54:52.363Z,7.80
2022-11-12T09:57:21.333Z,7.80
2022-11-12T09:59:49.056Z,7.90
2022-11-12T10:02:41.889Z,7.90
2022-11-12T10:05:29.882Z,8.00
2022-11-12T10:08:07.947Z,8.10
2022-11-12T10:10:45.040Z,8.10
2022-11-12T10:13:19.068Z,8.10
2022-11-12T10:16:39.505Z,8.00
2022-11-12T10:19:10.118Z,7.90
2022-11-12T10:22:02.119Z,7.90
2022-11-12T10:24:34.888Z,7.90
2022-11-12T10:27:21.769Z,7.80
2022-11-12T10:29:53.820Z,7.80
2022-11-12T10:32:22.584Z,7.90
2022-11-12T10:34:50.375Z,7.90
2022-11-12T10:37:47.776Z,8.00
2022-11-12T10:40:22.637Z,8.00
2022-11-12T10:43:06.194Z,8.00
2022-11-12T10:45:33.969Z,8.10
2022-11-12T10:48:01.730Z,8.10
2022-11-12T10:50:40.815Z,8.10
2022-11-12T10:53:11.593Z,8.00
2022-11-12T10:56:04.721Z,8.00
2022-11-12T10:58:32.792Z,8.00
2022-11-12T11:01:03.808Z,8.00
2022-11-12T11:03:47.340Z,8.10
2022-11-12T11:06:14.909Z,8.10
2022-11-12T11:08:45.347Z,8.10
2022-11-12T11:11:28.062Z,8.20
2022-11-12T11:14:29.284Z,8.20
2022-11-12T11:17:08.676Z,8.20
2022-11-12T11:19:39.723Z,8.30
2022-11-12T11:22:35.253Z,8.30
2022-11-12T11:25:05.965Z,8.30
2022-11-12T11:28:10.161Z,8.40
2022-11-12T11:30:54.886Z,8.40
2022-11-12T11:33:38.921Z,8.50
2022-11-12T11:36:22.128Z,8.60
2022-11-12T11:38:58.685Z,8.60
2022-11-12T11:41:35.317Z,8.50
2022-11-12T11:44:22.203Z,8.50
2022-11-12T11:47:16.667Z,8.50
2022-11-12T11:50:13.271Z,8.40
2022-11-12T11:52:45.859Z,8.50
2022-11-12T11:55:41.059Z,8.50
2022-11-12T11:58:33.100Z,8.60
2022-11-12T12:01:15.436Z,8.50
2022-11-12T12:03:55.897Z,8.60
2022-11-12T12:06:34.250Z,8.50
2022-11-12T12:09:20.831Z,8.60
2022-11-12T12:12:16.088Z,8.60
2022-11-12T12:14:46.668Z,8.60
2022-11-12T12:17:41.549Z,8.60
2022-11-12T12:20:17.194Z,8.60
2022-11-12T12:22:57.487Z,8.60
2022-11-12T12:25:32.574Z,8.50
2022-11-12T12:28:08.654Z,8.50
2022-11-12T12:30:45.461Z,8.50
2022-11-12T12:33:34.726Z,8.60
2022-11-12T12:36:08.248Z,8.60
2022-11-12T12:38:43.563Z,8.60
2022-11-12T12:41:32.928Z,8.70
2022-11-12T12:44:06.317Z,8.80
2022-11-12T12:46:42.810Z,8.80
2022-11-12T12:49:17.312Z,8.80
2022-11-12T12:51:45.371Z,8.80
2022-11-12T12:54:34.980Z,8.80
2022-11-12T12:57:41.108Z,8.80
2022-11-12T13:00:47.699Z,8.80
2022-11-12T13:03:44.380Z,8.80
2022-11-12T13:06:28.517Z,8.80
2022-11-12T13:09:07.156Z,8.80
2022-11-12T13:11:59.521Z,8.80
2022-11-12T13:14:39.234Z,8.90
2022-11-12T13:17:12.144Z,8.90
2022-11-12T13:19:58.215Z,8.90
2022-11-12T13:22:33.684Z,8.90
2022-11-12T13:25:13.721Z,9.00
2022-11-12T13:27:44.343Z,9.00
2022-11-12T13:30:17.878Z,9.00
2022-11-12T13:32:48.624Z,8.90
2022-11-12T13:35:25.638Z,9.10
2022-11-12T13:37:53.326Z,9.00
2022-11-12T13:40:23.758Z,9.10
2022-11-12T13:42:52.673Z,9.10
2022-11-12T13:45:23.987Z,9.00
2022-11-12T13:47:52.942Z,9.10
2022-11-12T13:50:24.703Z,9.10
2022-11-12T13:52:53.067Z,8.90
2022-11-12T13:55:22.629Z,9.00
2022-11-12T13:57:50.731Z,9.00
2022-11-12T14:00:18.847Z,9.00
2022-11-12T14:02:51.933Z,9.00
2022-11-12T14:05:26.438Z,8.90
2022-11-12T14:08:22.355Z,9.00
2022-11-12T14:10:52.679Z,9.00
2022-11-12T14:13:20.406Z,9.00
2022-11-12T14:16:07.856Z,9.00
2022-11-12T14:18:53.260Z,9.10
2022-11-12T14:21:21.953Z,9.00
2022-11-12T14:23:50.376Z,9.00
2022-11-12T14:26:39.094Z,9.00
2022-11-12T14:29:08.924Z,8.90
2022-11-12T14:31:36.588Z,8.90
2022-11-12T14:34:35.599Z,8.90
2022-11-12T14:37:03.389Z,8.80
2022-11-12T14:39:31.025Z,8.80
2022-11-12T14:42:00.376Z,8.90
2022-11-12T14:44:34.753Z,8.80
2022-11-12T14:49:49.171Z,8.80
2022-11-12T14:52:24.259Z,8.80
2022-11-12T14:54:57.242Z,8.80
2022-11-12T14:57:30.166Z,8.90
2022-11-12T14:59:58.599Z,8.80
2022-11-12T15:02:58.799Z,8.80
2022-11-12T15:05:23.549Z,8.70
2022-11-12T15:07:52.954Z,8.70
2022-11-12T15:10:42.963Z,8.80
2022-11-12T15:13:13.437Z,8.80
2022-11-12T15:15:50.732Z,8.70
2022-11-12T15:18:23.000Z,8.70
2022-11-12T15:21:22.911Z,8.60
2022-11-12T15:23:53.745Z,8.60
2022-11-12T15:26:48.650Z,8.60
2022-11-12T15:29:35.982Z,8.60
2022-11-12T15:32:13.499Z,8.50
2022-11-12T15:34:42.454Z,8.50
2022-11-12T15:37:25.944Z,8.50
2022-11-12T15:40:07.631Z,8.50
2022-11-12T15:42:38.578Z,8.40
2022-11-12T15:45:20.851Z,8.40
2022-11-12T15:47:50.382Z,8.40
2022-11-12T15:50:23.538Z,8.40
2022-11-12T15:52:51.464Z,8.30
2022-11-12T15:55:19.219Z,8.40
2022-11-12T15:57:50.420Z,8.40
2022-11-12T16:00:20.858Z,8.40
2022-11-12T16:03:03.338Z,8.40
2022-11-12T16:05:30.949Z,8.40
2022-11-12T16:07:58.573Z,8.50
2022-11-12T16:10:26.326Z,8.40
2022-11-12T16:12:59.084Z,8.40
2022-11-12T16:15:29.856Z,8.40
2022-11-12T16:18:00.579Z,8.40
2022-11-12T16:20:31.787Z,8.30
2022-11-12T16:22:59.577Z,8.40
2022-11-12T16:25:32.588Z,8.40
2022-11-12T16:28:01.874Z,8.30
2022-11-12T16:30:32.555Z,8.30
2022-11-12T16:33:01.584Z,8.30
2022-11-12T16:35:33.388Z,8.20
2022-11-12T16:38:01.038Z,8.30
2022-11-12T16:40:30.556Z,8.30
2022-11-12T16:43:01.538Z,8.20
2022-11-12T16:45:35.274Z,8.20
2022-11-12T16:48:16.657Z,8.20
2022-11-12T16:50:44.391Z,8.20
2022-11-12T16:53:12.140Z,8.20
2022-11-12T16:55:40.017Z,8.20
2022-11-12T16:58:07.984Z,8.20
2022-11-12T17:00:35.723Z,8.20
2022-11-12T17:03:03.632Z,8.20
2022-11-12T17:05:32.305Z,8.20
2022-11-12T17:07:59.947Z,8.20
2022-11-12T17:10:29.775Z,8.20
2022-11-12T17:12:57.409Z,8.20
2022-11-12T17:15:25.111Z,8.20
2022-11-12T17:17:55.900Z,8.20
2022-11-12T17:20:23.757Z,8.20
2022-11-12T17:22:51.525Z,8.20
2022-11-12T17:25:19.278Z,8.20
2022-11-12T17:27:47.058Z,8.20
2022-11-12T17:30:14.917Z,8.20
2022-11-12T17:32:42.741Z,8.20
2022-11-12T17:35:10.371Z,8.20
2022-11-12T17:37:38.066Z,8.20
2022-11-12T17:40:06.580Z,8.30
2022-11-12T17:42:35.695Z,8.20
2022-11-12T17:45:03.664Z,8.20
2022-11-12T17:47:39.340Z,8.20
2022-11-12T17:50:08.520Z,8.20
2022-11-12T17:52:36.250Z,8.10
2022-11-12T17:55:04.139Z,8.20
2022-11-12T17:57:31.822Z,8.20
2022-11-12T17:59:59.582Z,8.20
2022-11-12T18:02:27.205Z,8.20
2022-11-12T18:04:54.901Z,8.20
2022-11-12T18:07:22.785Z,8.20
2022-11-12T18:09:50.482Z,8.20
2022-11-12T18:12:18.180Z,8.30
2022-11-12T18:14:48.480Z,8.30
2022-11-12T18:17:16.301Z,8.30
2022-11-12T18:19:43.966Z,8.30
2022-11-12T18:22:19.444Z,8.30
2022-11-12T18:24:52.778Z,8.30
2022-11-12T18:27:23.044Z,8.30
2022-11-12T18:29:50.711Z,8.30
2022-11-12T18:32:18.644Z,8.20
2022-11-12T18:34:46.322Z,8.30
2022-11-12T18:37:17.107Z,8.30
2022-11-12T18:39:44.781Z,8.30
2022-11-12T18:42:13.828Z,8.30
2022-11-12T18:44:42.588Z,8.30
2022-11-12T18:47:10.249Z,8.30
2022-11-12T18:49:37.981Z,8.30
2022-11-12T18:52:05.823Z,8.30
2022-11-12T18:54:33.601Z,8.30
2022-11-12T18:57:01.382Z,8.30
2022-11-12T18:59:31.743Z,8.20
2022-11-12T19:02:02.477Z,8.30
2022-11-12T19:04:31.189Z,8.30
2022-11-12T19:06:59.208Z,8.30
2022-11-12T19:09:27.095Z,8.30
2022-11-12T19:11:54.978Z,8.30
2022-11-12T19:14:24.167Z,8.20
2022-11-12T19:16:52.139Z,8.30
2022-11-12T19:19:20.125Z,8.30
2022-11-12T19:21:48.947Z,8.30
2022-11-12T19:24:16.956Z,8.30
2022-11-12T19:26:44.732Z,8.30
2022-11-12T19:29:12.440Z,8.30
2022-11-12T19:31:40.873Z,8.30
2022-11-12T19:34:08.515Z,8.30
2022-11-12T19:36:36.410Z,8.30
2022-11-12T19:39:05.168Z,8.30
2022-11-12T19:41:33.085Z,8.30
2022-11-12T19:44:03.218Z,8.20
2022-11-12T19:46:32.398Z,8.30
2022-11-12T19:48:59.998Z,8.20
2022-11-12T19:51:28.665Z,8.20
2022-11-12T19:53:56.418Z,8.20
2022-11-12T19:56:24.194Z,8.30
2022-11-12T19:58:54.932Z,8.20
2022-11-12T20:01:23.230Z,8.20
2022-11-12T20:03:51.254Z,8.30
2022-11-12T20:06:22.499Z,8.30
2022-11-12T20:08:50.115Z,8.30
2022-11-12T20:11:18.905Z,8.30
2022-11-12T20:13:46.868Z,8.30
2022-11-12T20:16:22.222Z,8.30
2022-11-12T20:18:55.634Z,8.20
2022-11-12T20:21:24.351Z,8.20
2022-11-12T20:23:52.041Z,8.30
2022-11-12T20:26:19.985Z,8.30
2022-11-12T20:28:47.812Z,8.30
2022-11-12T20:31:20.573Z,8.20
2022-11-12T20:33:52.475Z,8.20
2022-11-12T20:36:22.132Z,8.20
2022-11-12T20:38:50.897Z,8.20
2022-11-12T20:41:21.123Z,8.20
2022-11-12T20:43:52.937Z,8.20
2022-11-12T20:46:21.181Z,8.20
2022-11-12T20:48:51.149Z,8.20
2022-11-12T20:51:25.542Z,8.20
2022-11-12T20:54:01.732Z,8.20
2022-11-12T20:56:31.107Z,8.10
2022-11-12T20:59:04.561Z,8.20
2022-11-12T21:01:33.365Z,8.20
2022-11-12T21:04:01.108Z,8.20
2022-11-12T21:06:29.542Z,8.20
2022-11-12T21:09:00.730Z,8.10
2022-11-12T21:11:28.752Z,8.10
2022-11-12T21:13:56.453Z,8.10
2022-11-12T21:16:24.142Z,8.10
2022-11-12T21:18:51.765Z,8.10
2022-11-12T21:21:22.126Z,8.10
2022-11-12T21:23:50.485Z,8.20
2022-11-12T21:26:24.973Z,8.10
2022-11-12T21:28:54.798Z,8.20
2022-11-12T21:31:28.352Z,8.20
2022-11-12T21:34:07.042Z,8.20
2022-11-12T21:36:37.920Z,8.20
2022-11-12T21:39:05.787Z,8.20
2022-11-12T21:41:33.511Z,8.20
2022-11-12T21:44:01.127Z,8.20
2022-11-12T21:46:40.133Z,8.20
2022-11-12T21:49:07.968Z,8.30
2022-11-12T21:51:36.041Z,8.30
2022-11-12T21:54:06.088Z,8.30
2022-11-12T21:56:37.062Z,8.20
2022-11-12T21:59:07.745Z,8.20
2022-11-12T22:01:35.572Z,8.20
2022-11-12T22:04:07.855Z,8.20
2022-11-12T22:06:38.130Z,8.20
2022-11-12T22:09:11.978Z,8.20
2022-11-12T22:11:42.046Z,8.10
2022-11-12T22:14:13.905Z,8.10
2022-11-12T22:16:41.588Z,8.10
2022-11-12T22:19:12.943Z,8.00
2022-11-12T22:21:43.117Z,7.90
2022-11-12T22:24:18.500Z,8.00
2022-11-12T22:26:55.566Z,8.00
2022-11-12T22:29:34.236Z,8.00
2022-11-12T22:32:02.048Z,8.00
2022-11-12T22:34:35.165Z,8.00
2022-11-12T22:37:02.771Z,8.00
2022-11-12T22:39:38.315Z,8.00
2022-11-12T22:42:07.498Z,8.00
2022-11-12T22:44:53.709Z,8.00
2022-11-12T22:47:21.374Z,8.00
2022-11-12T22:49:49.116Z,8.00
2022-11-12T22:52:16.753Z,8.00
2022-11-12T22:54:44.425Z,8.00
2022-11-12T22:57:12.089Z,8.10
2022-11-12T22:59:39.785Z,7.90
2022-11-12T23:02:08.413Z,8.00
2022-11-12T23:04:36.347Z,8.00
2022-11-12T23:07:08.896Z,7.90
2022-11-12T23:09:45.986Z,7.90
2022-11-12T23:12:15.749Z,7.90
2022-11-12T23:14:46.358Z,7.90
2022-11-12T23:17:17.572Z,8.00
2022-11-12T23:19:46.082Z,7.90
2022-11-12T23:22:13.689Z,8.00
2022-11-12T23:24:41.404Z,8.00
2022-11-12T23:27:09.081Z,8.00
2022-11-12T23:29:38.616Z,8.00
2022-11-12T23:32:06.219Z,8.00
2022-11-12T23:34:36.239Z,8.00
2022-11-12T23:37:03.874Z,8.00
2022-11-12T23:39:31.525Z,8.00
2022-11-12T23:41:59.151Z,8.00
2022-11-12T23:44:41.444Z,7.90
2022-11-12T23:50:20.456Z,8.00
2022-11-12T23:53:02.829Z,8.00
2022-11-12T23:55:50.134Z,8.00
2022-11-12T23:58:33.209Z,8.00
